Agios Georgios I — SX9857 — position and weather

sailwx.info

Track history (hours):
 
Tides and Currents Weather Stations Pressure Air Temp Water Temp Dewpoint Dewpoint Depression Visibility Wind Speed Wind Dir Waves Ship Positions

Agios Georgios I

Last reported at 2018-Jul-22 17:30 UTC. Time now 2018-Jul-22 17:49 UTC.
Position N 37°06' E 025°22'.

Length 59 m; draft 5 m.

Type: Ship (hazmat cat B). MMSI: 239912000.

Date/timePositionNaut miles runAvg speedWind from/ knotsBaromVisibWave heightAir tempDewpointWater temp
2018-Jul-22 17:30N 37°06' E 025°22'0 0.8
2018-Jul-22 17:00N 37°06' E 025°22'0 0.1
2018-Jul-22 16:30N 37°06' E 025°22'0 0.0
2018-Jul-22 16:00N 37°06' E 025°22'1 0.8
2018-Jul-22 15:00N 37°06' E 025°22'0 0.1
2018-Jul-22 14:30N 37°06' E 025°22'0 0.0
2018-Jul-22 14:00N 37°06' E 025°22'0 0.0
2018-Jul-22 13:30N 37°06' E 025°22'0 0.0
2018-Jul-22 13:00N 37°06' E 025°22'0 0.0
2018-Jul-22 12:30N 37°06' E 025°22'0 0.0
2018-Jul-22 12:00N 37°06' E 025°22'0 0.0
2018-Jul-22 11:30N 37°06' E 025°22'0 0.0
2018-Jul-22 11:00N 37°06' E 025°22'0 0.0
2018-Jul-22 10:30N 37°06' E 025°22'0 0.0
2018-Jul-22 10:00N 37°06' E 025°22'0 0.0
2018-Jul-22 09:30N 37°06' E 025°22'0 0.0
2018-Jul-22 09:00N 37°06' E 025°22'0 0.0
2018-Jul-22 08:30N 37°06' E 025°22'0 0.0
2018-Jul-22 08:00N 37°06' E 025°22'0 0.0
2018-Jul-22 07:30N 37°06' E 025°22'0 0.0
2018-Jul-22 07:00N 37°06' E 025°22'0 0.1
2018-Jul-22 06:30N 37°06' E 025°22'3 6.2
2018-Jul-22 06:00N 37°09' E 025°20'4 8.3
2018-Jul-22 05:30N 37°12' E 025°17'4 8.3
2018-Jul-22 05:00N 37°15' E 025°14'4 8.3
2018-Jul-22 04:30N 37°19' E 025°11'4 8.4
2018-Jul-22 04:00N 37°22' E 025°08'4 8.4
2018-Jul-22 03:28N 37°26' E 025°04'8 8.5
2018-Jul-22 02:34N 37°32' E 024°58'1 8.5
2018-Jul-22 02:28N 37°33' E 024°58'4 8.5
2018-Jul-22 02:00N 37°36' E 024°55'4 8.2
2018-Jul-22 01:30N 37°39' E 024°52'4 8.3
2018-Jul-22 01:00N 37°43' E 024°49'  
2018-Jul-17 12:16N 38°45' E 024°44'67 2.7
2018-Jul-16 11:56N 37°38' E 024°48'4 8.8
2018-Jul-16 11:29N 37°35' E 024°52'4 8.8
2018-Jul-16 10:59N 37°32' E 024°55'4 8.4
2018-Jul-16 10:29N 37°28' E 024°58'3 0.1
2018-Jul-15 16:01N 37°26' E 024°57'0 8.0
2018-Jul-15 16:00N 37°26' E 024°57'4 7.4
2018-Jul-15 15:30N 37°23' E 024°59'4 7.9
2018-Jul-15 14:59N 37°19' E 025°01'4 8.0
2018-Jul-15 14:30N 37°15' E 025°03'4 8.0
2018-Jul-15 14:00N 37°12' E 025°05'6 0.8
2018-Jul-15 06:44N 37°07' E 025°08'2 8.5
2018-Jul-15 06:30N 37°08' E 025°08'5 8.5
2018-Jul-15 05:54N 37°13' E 025°10'3 8.8
2018-Jul-15 05:30N 37°16' E 025°12'4 8.7
2018-Jul-15 05:00N 37°20' E 025°15'4 8.5
2018-Jul-15 04:30N 37°24' E 025°17'4 7.6
2018-Jul-15 03:59N 37°28' E 025°19'0 0.9
2018-Jul-15 03:30N 37°28' E 025°19'0 0.0
2018-Jul-15 03:00N 37°28' E 025°19'0 0.0
2018-Jul-15 02:30N 37°28' E 025°19'0 0.0
2018-Jul-15 02:00N 37°28' E 025°19'0 0.0
2018-Jul-15 01:30N 37°28' E 025°19'0 0.0
2018-Jul-15 01:00N 37°28' E 025°19'0 0.0
2018-Jul-15 00:30N 37°28' E 025°19'0 0.0
2018-Jul-15 00:00N 37°28' E 025°19'0 0.0
2018-Jul-14 23:29N 37°28' E 025°20'0 0.0
2018-Jul-14 23:00N 37°28' E 025°20'0 0.0
2018-Jul-14 22:30N 37°28' E 025°20'0 0.0
2018-Jul-14 22:00N 37°28' E 025°19'0 0.0
2018-Jul-14 21:29N 37°28' E 025°20'0 0.0
2018-Jul-14 21:00N 37°28' E 025°19'2 3.4
2018-Jul-14 20:30N 37°27' E 025°17'4 7.6
2018-Jul-14 19:59N 37°28' E 025°13'4 8.0
2018-Jul-14 19:30N 37°29' E 025°08'12 8.1
2018-Jul-14 17:59N 37°32' E 024°53'4 8.1
2018-Jul-14 17:30N 37°34' E 024°48'46 2.7
2018-Jul-14 00:20N 37°37' E 023°51'2 7.2
2018-Jul-14 00:00N 37°37' E 023°48'4 7.4
2018-Jul-13 23:29N 37°39' E 023°43'4 7.7
2018-Jul-13 23:00N 37°42' E 023°41'4 7.8
2018-Jul-13 22:30N 37°45' E 023°39'4 7.9
2018-Jul-13 22:00N 37°49' E 023°37'4 8.0
2018-Jul-13 21:30N 37°53' E 023°35'4 7.9
2018-Jul-13 21:00N 37°57' E 023°35'1 1.2
2018-Jul-13 20:30N 37°57' E 023°35'0 0.0
2018-Jul-13 20:00N 37°57' E 023°35'0 0.0
2018-Jul-13 19:30N 37°57' E 023°35'0 0.0
2018-Jul-13 19:00N 37°57' E 023°35'0 0.0
2018-Jul-13 18:30N 37°57' E 023°35'0 0.0
2018-Jul-13 18:00N 37°57' E 023°35'0 0.0
2018-Jul-13 17:30N 37°57' E 023°35'0 0.0
2018-Jul-13 17:00N 37°57' E 023°35'0 0.0
2018-Jul-13 16:30N 37°57' E 023°35'0 0.0
2018-Jul-13 16:00N 37°57' E 023°35'0 0.0
2018-Jul-13 15:30N 37°57' E 023°35'0 0.0
2018-Jul-13 15:00N 37°57' E 023°35'0 0.0
2018-Jul-13 14:00N 37°57' E 023°35'0 0.0
2018-Jul-13 13:30N 37°57' E 023°35'0 0.0
2018-Jul-13 13:00N 37°57' E 023°35'0 0.0
2018-Jul-13 12:30N 37°57' E 023°35'0 0.0
2018-Jul-13 12:00N 37°57' E 023°35'0 0.0
2018-Jul-13 11:30N 37°57' E 023°35'0 0.0
2018-Jul-13 11:00N 37°57' E 023°35'0 0.0
2018-Jul-13 10:30N 37°57' E 023°35'0 0.0
2018-Jul-13 10:00N 37°57' E 023°35'0 0.0
2018-Jul-13 09:30N 37°57' E 023°35'0 0.0
2018-Jul-13 09:00N 37°57' E 023°35'0 0.0
2018-Jul-13 08:30N 37°57' E 023°35'0 0.0
2018-Jul-13 08:00N 37°57' E 023°35'0 0.0
2018-Jul-13 07:30N 37°57' E 023°35'0 0.0
2018-Jul-13 07:00N 37°57' E 023°35'2 4.2
2018-Jul-13 06:30N 37°55' E 023°37'5 9.4
2018-Jul-13 06:00N 37°51' E 023°39'5 9.3
2018-Jul-13 05:30N 37°47' E 023°41'5 9.2
2018-Jul-13 05:00N 37°43' E 023°44'4 8.8
2018-Jul-13 04:30N 37°40' E 023°48'5 9.4
2018-Jul-13 03:58N 37°38' E 023°54'  
Track history (hours):
 
Tides and Currents Weather Stations Pressure Air Temp Water Temp Dewpoint Dewpoint Depression Visibility Wind Speed Wind Dir Waves Ship Positions

Agios Georgios I

Last reported at 2018-Jul-22 17:30 UTC. Time now 2018-Jul-22 17:49 UTC.
Position N 37°06' E 025°22'.

Length 59 m; draft 5 m.

Type: Ship (hazmat cat B). MMSI: 239912000.

Date/timePositionNaut miles runAvg speedWind from/ knotsBaromVisibWave heightAir tempDewpointWater temp
2018-Jul-22 17:30N 37°06' E 025°22'0 0.8
2018-Jul-22 17:00N 37°06' E 025°22'0 0.1
2018-Jul-22 16:30N 37°06' E 025°22'0 0.0
2018-Jul-22 16:00N 37°06' E 025°22'1 0.8
2018-Jul-22 15:00N 37°06' E 025°22'0 0.1
2018-Jul-22 14:30N 37°06' E 025°22'0 0.0
2018-Jul-22 14:00N 37°06' E 025°22'0 0.0
2018-Jul-22 13:30N 37°06' E 025°22'0 0.0
2018-Jul-22 13:00N 37°06' E 025°22'0 0.0
2018-Jul-22 12:30N 37°06' E 025°22'0 0.0
2018-Jul-22 12:00N 37°06' E 025°22'0 0.0
2018-Jul-22 11:30N 37°06' E 025°22'0 0.0
2018-Jul-22 11:00N 37°06' E 025°22'0 0.0
2018-Jul-22 10:30N 37°06' E 025°22'0 0.0
2018-Jul-22 10:00N 37°06' E 025°22'0 0.0
2018-Jul-22 09:30N 37°06' E 025°22'0 0.0
2018-Jul-22 09:00N 37°06' E 025°22'0 0.0
2018-Jul-22 08:30N 37°06' E 025°22'0 0.0
2018-Jul-22 08:00N 37°06' E 025°22'0 0.0
2018-Jul-22 07:30N 37°06' E 025°22'0 0.0
2018-Jul-22 07:00N 37°06' E 025°22'0 0.1
2018-Jul-22 06:30N 37°06' E 025°22'3 6.2
2018-Jul-22 06:00N 37°09' E 025°20'4 8.3
2018-Jul-22 05:30N 37°12' E 025°17'4 8.3
2018-Jul-22 05:00N 37°15' E 025°14'4 8.3
2018-Jul-22 04:30N 37°19' E 025°11'4 8.4
2018-Jul-22 04:00N 37°22' E 025°08'4 8.4
2018-Jul-22 03:28N 37°26' E 025°04'8 8.5
2018-Jul-22 02:34N 37°32' E 024°58'1 8.5
2018-Jul-22 02:28N 37°33' E 024°58'4 8.5
2018-Jul-22 02:00N 37°36' E 024°55'4 8.2
2018-Jul-22 01:30N 37°39' E 024°52'4 8.3
2018-Jul-22 01:00N 37°43' E 024°49'  
2018-Jul-17 12:16N 38°45' E 024°44'67 2.7
2018-Jul-16 11:56N 37°38' E 024°48'4 8.8
2018-Jul-16 11:29N 37°35' E 024°52'4 8.8
2018-Jul-16 10:59N 37°32' E 024°55'4 8.4
2018-Jul-16 10:29N 37°28' E 024°58'3 0.1
2018-Jul-15 16:01N 37°26' E 024°57'0 8.0
2018-Jul-15 16:00N 37°26' E 024°57'4 7.4
2018-Jul-15 15:30N 37°23' E 024°59'4 7.9
2018-Jul-15 14:59N 37°19' E 025°01'4 8.0
2018-Jul-15 14:30N 37°15' E 025°03'4 8.0
2018-Jul-15 14:00N 37°12' E 025°05'6 0.8
2018-Jul-15 06:44N 37°07' E 025°08'2 8.5
2018-Jul-15 06:30N 37°08' E 025°08'5 8.5
2018-Jul-15 05:54N 37°13' E 025°10'3 8.8
2018-Jul-15 05:30N 37°16' E 025°12'4 8.7
2018-Jul-15 05:00N 37°20' E 025°15'4 8.5
2018-Jul-15 04:30N 37°24' E 025°17'4 7.6
2018-Jul-15 03:59N 37°28' E 025°19'0 0.9
2018-Jul-15 03:30N 37°28' E 025°19'0 0.0
2018-Jul-15 03:00N 37°28' E 025°19'0 0.0
2018-Jul-15 02:30N 37°28' E 025°19'0 0.0
2018-Jul-15 02:00N 37°28' E 025°19'0 0.0
2018-Jul-15 01:30N 37°28' E 025°19'0 0.0
2018-Jul-15 01:00N 37°28' E 025°19'0 0.0
2018-Jul-15 00:30N 37°28' E 025°19'0 0.0
2018-Jul-15 00:00N 37°28' E 025°19'0 0.0
2018-Jul-14 23:29N 37°28' E 025°20'0 0.0
2018-Jul-14 23:00N 37°28' E 025°20'0 0.0
2018-Jul-14 22:30N 37°28' E 025°20'0 0.0
2018-Jul-14 22:00N 37°28' E 025°19'0 0.0
2018-Jul-14 21:29N 37°28' E 025°20'0 0.0
2018-Jul-14 21:00N 37°28' E 025°19'2 3.4
2018-Jul-14 20:30N 37°27' E 025°17'4 7.6
2018-Jul-14 19:59N 37°28' E 025°13'4 8.0
2018-Jul-14 19:30N 37°29' E 025°08'12 8.1
2018-Jul-14 17:59N 37°32' E 024°53'4 8.1
2018-Jul-14 17:30N 37°34' E 024°48'46 2.7
2018-Jul-14 00:20N 37°37' E 023°51'2 7.2
2018-Jul-14 00:00N 37°37' E 023°48'4 7.4
2018-Jul-13 23:29N 37°39' E 023°43'4 7.7
2018-Jul-13 23:00N 37°42' E 023°41'4 7.8
2018-Jul-13 22:30N 37°45' E 023°39'4 7.9
2018-Jul-13 22:00N 37°49' E 023°37'4 8.0
2018-Jul-13 21:30N 37°53' E 023°35'4 7.9
2018-Jul-13 21:00N 37°57' E 023°35'1 1.2
2018-Jul-13 20:30N 37°57' E 023°35'0 0.0
2018-Jul-13 20:00N 37°57' E 023°35'0 0.0
2018-Jul-13 19:30N 37°57' E 023°35'0 0.0
2018-Jul-13 19:00N 37°57' E 023°35'0 0.0
2018-Jul-13 18:30N 37°57' E 023°35'0 0.0
2018-Jul-13 18:00N 37°57' E 023°35'0 0.0
2018-Jul-13 17:30N 37°57' E 023°35'0 0.0
2018-Jul-13 17:00N 37°57' E 023°35'0 0.0
2018-Jul-13 16:30N 37°57' E 023°35'0 0.0
2018-Jul-13 16:00N 37°57' E 023°35'0 0.0
2018-Jul-13 15:30N 37°57' E 023°35'0 0.0
2018-Jul-13 15:00N 37°57' E 023°35'0 0.0
2018-Jul-13 14:00N 37°57' E 023°35'0 0.0
2018-Jul-13 13:30N 37°57' E 023°35'0 0.0
2018-Jul-13 13:00N 37°57' E 023°35'0 0.0
2018-Jul-13 12:30N 37°57' E 023°35'0 0.0
2018-Jul-13 12:00N 37°57' E 023°35'0 0.0
2018-Jul-13 11:30N 37°57' E 023°35'0 0.0
2018-Jul-13 11:00N 37°57' E 023°35'0 0.0
2018-Jul-13 10:30N 37°57' E 023°35'0 0.0
2018-Jul-13 10:00N 37°57' E 023°35'0 0.0
2018-Jul-13 09:30N 37°57' E 023°35'0 0.0
2018-Jul-13 09:00N 37°57' E 023°35'0 0.0
2018-Jul-13 08:30N 37°57' E 023°35'0 0.0
2018-Jul-13 08:00N 37°57' E 023°35'0 0.0
2018-Jul-13 07:30N 37°57' E 023°35'0 0.0
2018-Jul-13 07:00N 37°57' E 023°35'2 4.2
2018-Jul-13 06:30N 37°55' E 023°37'5 9.4
2018-Jul-13 06:00N 37°51' E 023°39'5 9.3
2018-Jul-13 05:30N 37°47' E 023°41'5 9.2
2018-Jul-13 05:00N 37°43' E 023°44'4 8.8
2018-Jul-13 04:30N 37°40' E 023°48'5 9.4
2018-Jul-13 03:58N 37°38' E 023°54'  

Dump ship's entire track history